Time;durP1;ratioP1;P1;durP2;ratioP2;P2;SDS_P1;SDS_P2;PMS_P1;PMS_P2;Temp;Humidity;BMP_temperature;BMP_pressure;BME280_temperature;BME280_humidity;BME280_pressure;Samples;Min_cycle;Max_cycle;Signal;HPM_P1;HPM_P2
2022/03/09 00:00:38;;;;;;;18.50;11.40;;;5.60;40.10;;;;;;5065592;28;20479;-85
2022/03/09 00:03:06;;;;;;;26.30;11.43;;;5.50;40.30;;;;;;5056069;28;20444;-85
2022/03/09 00:05:33;;;;;;;19.30;11.40;;;5.40;40.60;;;;;;5067336;28;21390;-85
2022/03/09 00:08:00;;;;;;;18.17;10.00;;;5.40;40.50;;;;;;5048115;28;20468;-84
2022/03/09 00:10:27;;;;;;;18.90;9.90;;;5.20;41.30;;;;;;5084458;28;20474;-84
2022/03/09 00:12:55;;;;;;;18.33;9.87;;;5.20;41.00;;;;;;5082094;28;20816;-84
2022/03/09 00:15:22;;;;;;;18.43;9.93;;;5.00;40.70;;;;;;5084126;28;20468;-84
2022/03/09 00:17:49;;;;;;;20.50;9.40;;;5.10;41.00;;;;;;5082886;28;20472;-85
2022/03/09 00:20:17;;;;;;;18.07;8.43;;;5.20;41.00;;;;;;5049084;28;21004;-85
2022/03/09 00:22:45;;;;;;;16.40;10.20;;;5.30;40.80;;;;;;5063525;28;20458;-84
2022/03/09 00:25:12;;;;;;;26.10;9.03;;;5.30;41.00;;;;;;5081624;28;20460;-84
2022/03/09 00:27:39;;;;;;;16.67;9.13;;;5.10;41.40;;;;;;5064693;28;20464;-85
2022/03/09 00:30:08;;;;;;;13.13;7.60;;;4.50;41.90;;;;;;5066360;28;20450;-83
2022/03/09 00:32:39;;;;;;;15.00;8.77;;;3.90;43.50;;;;;;5046814;28;20451;-84
2022/03/09 00:35:07;;;;;;;21.07;8.07;;;4.10;43.60;;;;;;5084318;28;20475;-83
2022/03/09 00:37:35;;;;;;;18.60;8.80;;;4.30;43.20;;;;;;5082135;28;20967;-85
2022/03/09 00:40:02;;;;;;;10.00;8.23;;;4.60;42.40;;;;;;5064263;28;20842;-85
2022/03/09 00:42:30;;;;;;;13.57;7.77;;;4.70;41.50;;;;;;5060898;28;20471;-85
2022/03/09 00:44:57;;;;;;;12.50;7.90;;;4.80;42.00;;;;;;5062772;28;20475;-84
2022/03/09 00:47:24;;;;;;;20.00;8.83;;;4.80;41.80;;;;;;5062676;28;20444;-84
2022/03/09 00:49:51;;;;;;;18.40;8.80;;;4.90;41.60;;;;;;5045899;28;20810;-84
2022/03/09 00:52:17;;;;;;;12.77;6.97;;;5.00;41.30;;;;;;5046606;28;20550;-84
2022/03/09 00:54:47;;;;;;;14.67;8.30;;;5.10;41.00;;;;;;5063283;28;20476;-84
2022/03/09 00:57:14;;;;;;;14.17;7.87;;;5.10;40.70;;;;;;5045301;28;20444;-85
2022/03/09 00:59:41;;;;;;;19.63;8.63;;;5.10;40.90;;;;;;5061606;28;20479;-84
2022/03/09 01:02:08;;;;;;;10.00;7.10;;;5.00;41.50;;;;;;5056882;28;20525;-85
2022/03/09 01:04:36;;;;;;;17.10;8.60;;;5.00;41.60;;;;;;5062834;28;20467;-84
2022/03/09 01:07:04;;;;;;;16.67;8.90;;;5.00;41.20;;;;;;5082824;28;20471;-85
2022/03/09 01:09:31;;;;;;;12.23;7.87;;;5.00;41.50;;;;;;5081291;28;20984;-85
2022/03/09 01:12:00;;;;;;;13.53;8.10;;;5.00;40.90;;;;;;5081626;28;20471;-85
2022/03/09 01:14:27;;;;;;;14.20;7.97;;;4.80;41.10;;;;;;5063441;28;20970;-85
2022/03/09 01:16:54;;;;;;;18.80;9.10;;;4.80;41.50;;;;;;5064100;28;20531;-85
2022/03/09 01:19:21;;;;;;;12.70;8.20;;;4.70;41.90;;;;;;5066499;28;21019;-84
2022/03/09 01:21:48;;;;;;;15.03;7.77;;;4.80;41.70;;;;;;5081066;28;20471;-84
2022/03/09 01:24:15;;;;;;;11.30;8.17;;;4.80;41.60;;;;;;5062885;28;20799;-85
2022/03/09 01:26:42;;;;;;;15.27;6.70;;;4.80;42.10;;;;;;5080346;28;20460;-82
2022/03/09 01:29:11;;;;;;;16.17;8.20;;;4.90;41.50;;;;;;5064366;28;20459;-85
2022/03/09 01:31:38;;;;;;;14.77;9.00;;;4.80;41.20;;;;;;5080064;28;20484;-84
2022/03/09 01:34:05;;;;;;;11.70;8.23;;;4.80;41.20;;;;;;5065044;28;20463;-84
2022/03/09 01:36:32;;;;;;;14.27;8.53;;;4.80;41.20;;;;;;5081287;28;20459;-85
2022/03/09 01:38:59;;;;;;;17.37;8.00;;;4.80;41.40;;;;;;5081714;28;20458;-84
2022/03/09 01:41:26;;;;;;;15.03;9.07;;;4.70;41.60;;;;;;5067098;28;20831;-85
2022/03/09 01:44:07;;;;;;;11.63;8.07;;;4.70;41.50;;;;;;5055307;28;20456;-84
2022/03/09 01:46:36;;;;;;;14.20;7.73;;;4.70;41.70;;;;;;5048161;28;20452;-86
2022/03/09 01:49:03;;;;;;;13.63;8.33;;;4.70;41.90;;;;;;5081486;28;20470;-85
2022/03/09 01:51:32;;;;;;;13.13;9.10;;;4.50;42.00;;;;;;5078982;28;20488;-85
2022/03/09 01:53:59;;;;;;;11.33;7.87;;;4.00;43.20;;;;;;5078890;28;20492;-84
2022/03/09 01:56:27;;;;;;;11.97;7.80;;;3.70;43.80;;;;;;5063719;28;20867;-85
2022/03/09 01:58:54;;;;;;;15.37;8.10;;;3.80;43.00;;;;;;5063002;28;20451;-85
2022/03/09 02:01:21;;;;;;;12.70;8.97;;;3.90;42.10;;;;;;5064947;28;20503;-84
2022/03/09 02:03:50;;;;;;;14.93;9.07;;;3.80;42.80;;;;;;5080085;28;21132;-85
2022/03/09 02:06:17;;;;;;;13.00;7.53;;;3.90;43.30;;;;;;5062481;28;20503;-85
2022/03/09 02:11:33;;;;;;;16.53;8.17;;;4.10;42.60;;;;;;5066255;28;20455;-85
2022/03/09 02:14:00;;;;;;;12.30;7.17;;;4.20;42.60;;;;;;5038589;28;20447;-85
2022/03/09 02:16:27;;;;;;;12.07;6.97;;;4.20;42.20;;;;;;5038617;28;20506;-84
2022/03/09 02:18:56;;;;;;;13.63;7.67;;;3.80;42.50;;;;;;5084387;28;20467;-85
2022/03/09 02:21:26;;;;;;;13.90;7.00;;;3.60;43.40;;;;;;5085079;28;20483;-85
2022/03/09 02:23:56;;;;;;;15.03;8.47;;;3.70;43.10;;;;;;5081771;28;20452;-84
2022/03/09 02:26:24;;;;;;;13.33;7.10;;;3.80;42.90;;;;;;5067422;28;20448;-84
2022/03/09 02:28:50;;;;;;;10.60;6.33;;;4.00;42.70;;;;;;5083635;28;20452;-85
2022/03/09 02:31:17;;;;;;;13.00;7.93;;;4.10;42.50;;;;;;5057237;28;20471;-85
2022/03/09 02:33:45;;;;;;;12.37;7.53;;;4.10;41.80;;;;;;5083413;28;20953;-85
2022/03/09 02:36:12;;;;;;;13.60;7.93;;;4.20;41.60;;;;;;5068360;28;20499;-85
2022/03/09 02:38:39;;;;;;;17.60;7.60;;;4.20;41.90;;;;;;5085256;28;20466;-85
2022/03/09 02:41:08;;;;;;;12.27;7.47;;;4.20;41.80;;;;;;5067387;28;20471;-85
2022/03/09 02:43:35;;;;;;;12.10;7.10;;;4.30;41.60;;;;;;5067368;28;21210;-85
2022/03/09 02:46:02;;;;;;;14.07;9.07;;;4.30;41.60;;;;;;5085033;28;20464;-85
2022/03/09 02:48:30;;;;;;;12.37;7.20;;;4.20;41.70;;;;;;5066019;28;20568;-82
2022/03/09 02:50:57;;;;;;;11.60;7.23;;;4.20;42.30;;;;;;5083126;28;20487;-84
2022/03/09 02:53:24;;;;;;;14.37;8.50;;;4.10;42.60;;;;;;5082807;28;20812;-85
2022/03/09 02:55:51;;;;;;;12.87;7.77;;;4.00;42.90;;;;;;5084259;28;20475;-84
2022/03/09 02:58:19;;;;;;;14.27;6.60;;;4.00;43.10;;;;;;5084322;28;20455;-85
2022/03/09 03:00:46;;;;;;;18.00;8.50;;;3.90;43.60;;;;;;5065905;28;20475;-85
2022/03/09 03:03:13;;;;;;;11.63;7.77;;;3.80;43.20;;;;;;5056084;28;20514;-87
2022/03/09 03:05:40;;;;;;;11.73;7.13;;;3.80;43.20;;;;;;5084783;28;20573;-85
2022/03/09 03:08:07;;;;;;;17.23;7.27;;;3.80;42.60;;;;;;5047872;28;21079;-84
2022/03/09 03:10:33;;;;;;;11.53;7.50;;;3.70;43.10;;;;;;5064256;28;20600;-84
2022/03/09 03:13:00;;;;;;;11.37;8.20;;;3.60;43.80;;;;;;5065805;28;20467;-86
2022/03/09 03:15:29;;;;;;;15.33;7.80;;;3.70;44.00;;;;;;5084214;28;21025;-87
2022/03/09 03:17:55;;;;;;;18.40;8.97;;;3.20;44.30;;;;;;5022078;28;20513;-85
2022/03/09 03:20:22;;;;;;;11.83;8.23;;;2.70;45.40;;;;;;5084624;28;20456;-85
2022/03/09 03:22:49;;;;;;;10.23;7.10;;;2.50;46.20;;;;;;5063122;28;20475;-85
2022/03/09 03:25:16;;;;;;;13.47;7.57;;;2.80;46.10;;;;;;5083069;28;20462;-84
2022/03/09 03:27:43;;;;;;;13.93;7.60;;;3.00;45.60;;;;;;5062773;28;20862;-85
2022/03/09 03:30:11;;;;;;;13.73;8.77;;;3.00;45.20;;;;;;5083295;28;20452;-85
2022/03/09 03:32:39;;;;;;;11.27;7.10;;;3.10;45.00;;;;;;5083626;28;20466;-84
2022/03/09 03:35:08;;;;;;;11.97;7.23;;;3.20;45.00;;;;;;5066289;28;20508;-86
2022/03/09 03:37:35;;;;;;;10.53;7.73;;;3.30;44.50;;;;;;5065185;28;20575;-84
2022/03/09 03:40:02;;;;;;;15.80;8.27;;;3.50;43.80;;;;;;5048352;28;20946;-85
2022/03/09 03:42:29;;;;;;;16.07;8.40;;;3.60;43.30;;;;;;5063634;28;20476;-85
2022/03/09 03:44:56;;;;;;;11.63;7.03;;;3.60;42.90;;;;;;5064269;28;20456;-86
2022/03/09 03:47:23;;;;;;;13.90;7.43;;;3.50;42.90;;;;;;5082708;28;20555;-86
2022/03/09 03:49:51;;;;;;;14.37;8.00;;;3.40;43.00;;;;;;5066630;28;21118;-86
2022/03/09 03:52:18;;;;;;;12.90;6.70;;;3.40;43.70;;;;;;5083903;28;20493;-86
2022/03/09 03:54:45;;;;;;;8.00;7.00;;;3.40;43.70;;;;;;5064156;28;20455;-85
2022/03/09 03:57:12;;;;;;;12.13;6.70;;;3.40;44.70;;;;;;5065838;28;20471;-85
2022/03/09 03:59:39;;;;;;;11.57;7.40;;;2.90;46.30;;;;;;5083253;28;20464;-85
2022/03/09 04:02:06;;;;;;;11.40;6.50;;;3.00;46.00;;;;;;5065368;28;20486;-85
2022/03/09 04:04:33;;;;;;;10.57;6.57;;;3.10;45.30;;;;;;5062886;28;20509;-85
2022/03/09 04:07:01;;;;;;;13.77;7.77;;;3.20;45.20;;;;;;5063285;28;20518;-84
2022/03/09 04:09:28;;;;;;;13.23;7.60;;;3.40;44.60;;;;;;5084445;28;20455;-85
2022/03/09 04:11:55;;;;;;;20.50;7.80;;;3.40;44.10;;;;;;5063906;28;20488;-86
2022/03/09 04:14:22;;;;;;;27.47;13.00;;;3.40;43.90;;;;;;5062620;28;20451;-86
2022/03/09 04:16:49;;;;;;;16.47;8.77;;;3.40;43.60;;;;;;5063050;28;20475;-86
2022/03/09 04:19:25;;;;;;;12.53;8.03;;;3.40;43.80;;;;;;5083485;28;20470;-85
2022/03/09 04:21:52;;;;;;;12.73;6.73;;;3.40;43.60;;;;;;5069900;28;20550;-85
2022/03/09 04:24:20;;;;;;;9.93;7.80;;;3.40;43.50;;;;;;5081080;28;20522;-85
2022/03/09 04:26:47;;;;;;;9.53;6.50;;;3.40;43.70;;;;;;5064217;28;20451;-86
2022/03/09 04:29:14;;;;;;;17.97;10.10;;;3.40;43.60;;;;;;5086774;28;20485;-86
2022/03/09 04:31:41;;;;;;;26.13;11.60;;;3.40;43.30;;;;;;5060720;28;20482;-86
2022/03/09 04:34:08;;;;;;;17.63;9.57;;;3.40;43.10;;;;;;5084369;28;20459;-87
2022/03/09 04:36:36;;;;;;;18.83;7.60;;;3.40;43.50;;;;;;5067372;28;20482;-85
2022/03/09 04:39:06;;;;;;;15.97;7.93;;;3.40;43.40;;;;;;5048397;28;21940;-86
2022/03/09 04:41:34;;;;;;;13.47;7.97;;;3.30;43.40;;;;;;5083736;28;20471;-87
2022/03/09 04:44:01;;;;;;;13.20;8.00;;;3.30;43.10;;;;;;5062238;28;20451;-86
2022/03/09 04:49:03;;;;;;;19.37;8.77;;;2.90;44.50;;;;;;5070418;28;20468;-86
2022/03/09 04:51:30;;;;;;;14.53;7.13;;;3.00;44.70;;;;;;5066348;28;20475;-86
2022/03/09 04:53:57;;;;;;;12.40;6.27;;;3.00;44.20;;;;;;5064962;28;20458;-86
2022/03/09 04:56:24;;;;;;;15.70;8.60;;;3.00;43.80;;;;;;5065963;28;20475;-86
2022/03/09 04:58:52;;;;;;;28.67;11.97;;;3.10;43.70;;;;;;5051849;28;20471;-85
2022/03/09 05:01:19;;;;;;;16.87;9.67;;;3.10;43.60;;;;;;5065722;28;20464;-86
2022/03/09 05:03:46;;;;;;;14.20;7.70;;;3.10;43.30;;;;;;5055644;28;20806;-87
2022/03/09 05:06:14;;;;;;;17.87;8.90;;;3.00;43.70;;;;;;5082242;28;20514;-86
2022/03/09 05:08:41;;;;;;;11.40;7.37;;;3.10;44.10;;;;;;5083801;28;20448;-84
2022/03/09 05:11:08;;;;;;;14.03;7.00;;;3.10;43.70;;;;;;5062642;28;20517;-86
2022/03/09 05:13:35;;;;;;;21.27;10.90;;;3.10;43.20;;;;;;5064145;28;20491;-87
2022/03/09 05:16:05;;;;;;;18.50;10.40;;;3.10;43.20;;;;;;5080921;28;20479;-86
2022/03/09 05:18:33;;;;;;;22.80;8.97;;;3.10;43.20;;;;;;5082886;28;20494;-86
2022/03/09 05:20:59;;;;;;;11.60;6.90;;;3.10;43.20;;;;;;5063307;28;20469;-86
2022/03/09 05:23:26;;;;;;;13.60;7.70;;;3.10;43.10;;;;;;5031172;28;20829;-86
2022/03/09 05:25:53;;;;;;;16.10;8.20;;;3.00;43.50;;;;;;5083348;28;20444;-82
2022/03/09 05:28:20;;;;;;;14.30;8.27;;;3.00;44.40;;;;;;5080704;28;20471;-85
2022/03/09 05:30:47;;;;;;;14.97;8.53;;;2.90;44.60;;;;;;5061030;28;20474;-86
2022/03/09 05:33:16;;;;;;;20.83;10.57;;;2.90;44.30;;;;;;5060072;28;20462;-86
2022/03/09 05:35:43;;;;;;;16.37;7.70;;;2.80;43.60;;;;;;5026165;28;20701;-85
2022/03/09 05:38:10;;;;;;;14.30;7.13;;;2.70;43.70;;;;;;5081179;28;20792;-86
2022/03/09 05:40:37;;;;;;;14.20;7.30;;;2.60;44.30;;;;;;5041909;28;20470;-86
2022/03/09 05:43:04;;;;;;;15.27;7.40;;;2.40;44.50;;;;;;5040998;28;21009;-87
2022/03/09 05:45:31;;;;;;;16.70;7.83;;;2.30;45.10;;;;;;5065050;28;20459;-87
2022/03/09 05:47:58;;;;;;;12.43;7.83;;;2.40;45.40;;;;;;5085151;28;20463;-87
2022/03/09 05:50:26;;;;;;;12.03;8.03;;;2.50;45.00;;;;;;5070357;28;20471;-86
2022/03/09 05:52:53;;;;;;;9.50;5.20;;;2.60;44.70;;;;;;5064719;28;20459;-87
2022/03/09 05:55:20;;;;;;;12.33;8.20;;;2.40;44.90;;;;;;5045837;28;20928;-86
2022/03/09 05:57:47;;;;;;;17.73;8.80;;;2.10;46.10;;;;;;5080823;28;20447;-87
2022/03/09 06:00:15;;;;;;;20.27;8.70;;;2.20;46.10;;;;;;5080691;28;20460;-85
2022/03/09 06:02:43;;;;;;;16.40;7.53;;;2.20;45.90;;;;;;5080783;28;20951;-87
2022/03/09 06:05:10;;;;;;;14.73;7.87;;;2.20;45.70;;;;;;5059414;28;20463;-88
2022/03/09 06:07:39;;;;;;;12.90;7.60;;;2.20;45.80;;;;;;5081986;28;20447;-89
2022/03/09 06:10:07;;;;;;;12.00;7.27;;;2.30;45.60;;;;;;5048983;28;20958;-90
2022/03/09 06:12:34;;;;;;;17.17;9.87;;;2.40;46.10;;;;;;5058531;28;20976;-89
2022/03/09 06:15:01;;;;;;;18.83;9.40;;;2.50;45.80;;;;;;5060582;28;20811;-89
2022/03/09 06:17:28;;;;;;;19.63;9.17;;;2.60;45.20;;;;;;5064012;28;20548;-89
2022/03/09 06:19:55;;;;;;;18.03;8.77;;;2.70;45.10;;;;;;5064055;28;20447;-89
2022/03/09 06:22:22;;;;;;;20.20;8.57;;;2.40;45.70;;;;;;5080347;28;20479;-90
2022/03/09 06:24:50;;;;;;;20.23;10.87;;;2.40;45.90;;;;;;5063375;28;20443;-88
2022/03/09 06:27:18;;;;;;;19.73;9.70;;;2.60;45.30;;;;;;5061688;28;20848;-89
2022/03/09 06:29:45;;;;;;;21.87;9.20;;;2.70;44.90;;;;;;5064354;28;20450;-88
2022/03/09 06:32:11;;;;;;;16.33;7.97;;;2.70;44.50;;;;;;5064002;28;20482;-89
2022/03/09 06:34:38;;;;;;;12.20;8.27;;;2.70;44.50;;;;;;5083640;28;20443;-89
2022/03/09 06:37:05;;;;;;;15.63;8.07;;;2.80;44.50;;;;;;5062712;28;20981;-89
2022/03/09 06:39:32;;;;;;;15.70;8.90;;;2.80;44.70;;;;;;5063179;28;20454;-89
2022/03/09 06:42:01;;;;;;;19.03;9.47;;;2.90;44.60;;;;;;5065062;28;20490;-88
2022/03/09 06:44:28;;;;;;;13.03;8.73;;;2.90;44.40;;;;;;5063198;28;20458;-89
2022/03/09 06:46:56;;;;;;;16.13;9.83;;;2.90;44.40;;;;;;5043522;28;20478;-89
2022/03/09 06:49:25;;;;;;;17.33;9.30;;;2.90;44.20;;;;;;5078687;28;20454;-89
2022/03/09 06:51:52;;;;;;;22.43;8.93;;;2.90;44.30;;;;;;5081765;28;20467;-89
2022/03/09 06:54:19;;;;;;;23.20;11.17;;;2.90;44.20;;;;;;5067207;28;20514;-91
2022/03/09 06:56:47;;;;;;;19.20;9.47;;;2.90;44.90;;;;;;5080075;28;20477;-90
2022/03/09 06:59:15;;;;;;;27.33;10.13;;;3.00;44.30;;;;;;5083144;28;21038;-89
2022/03/09 07:01:42;;;;;;;18.20;9.30;;;3.00;44.60;;;;;;5084980;28;20478;-88
2022/03/09 07:04:10;;;;;;;14.33;8.50;;;3.00;44.60;;;;;;5082427;28;20456;-89
2022/03/09 07:06:38;;;;;;;20.53;9.97;;;3.00;44.80;;;;;;5047786;28;20539;-90
2022/03/09 07:09:05;;;;;;;12.80;10.43;;;3.00;44.70;;;;;;5080206;28;20816;-90
2022/03/09 07:11:32;;;;;;;15.07;8.47;;;2.90;44.90;;;;;;5082785;28;21021;-90
2022/03/09 07:13:59;;;;;;;23.00;10.00;;;2.90;44.90;;;;;;5063730;28;20509;-89
2022/03/09 07:16:28;;;;;;;16.97;8.10;;;3.00;45.00;;;;;;5048118;28;20505;-89
2022/03/09 07:18:56;;;;;;;12.97;7.80;;;2.90;44.90;;;;;;5085392;28;20456;-90
2022/03/09 07:21:23;;;;;;;9.73;7.37;;;3.00;45.20;;;;;;5065400;28;20570;-92
2022/03/09 07:23:50;;;;;;;13.73;10.47;;;3.00;45.20;;;;;;5060604;28;20441;-90
2022/03/09 07:26:17;;;;;;;10.73;8.00;;;3.00;45.40;;;;;;5079434;28;20452;-90
2022/03/09 07:28:44;;;;;;;16.50;8.30;;;3.00;45.30;;;;;;5033571;28;20455;-89
2022/03/09 07:31:11;;;;;;;13.50;8.00;;;3.00;45.60;;;;;;5082078;28;20582;-89
2022/03/09 07:33:39;;;;;;;14.27;7.77;;;3.10;45.70;;;;;;5049741;28;20897;-90
2022/03/09 07:36:08;;;;;;;13.33;8.87;;;3.10;45.80;;;;;;5064860;28;20443;-90
2022/03/09 07:38:38;;;;;;;23.00;12.10;;;3.20;45.80;;;;;;5061500;28;20454;-89
2022/03/09 07:41:05;;;;;;;21.77;12.60;;;3.20;45.60;;;;;;5052669;28;20491;-90
2022/03/09 07:43:32;;;;;;;21.37;12.10;;;3.30;45.80;;;;;;5065323;28;20435;-90
2022/03/09 07:45:59;;;;;;;25.33;12.30;;;3.30;45.80;;;;;;5034792;28;20939;-90
2022/03/09 07:48:28;;;;;;;19.53;12.23;;;3.30;45.70;;;;;;5083360;28;21171;-89
2022/03/09 07:50:56;;;;;;;20.70;11.83;;;3.30;45.90;;;;;;5063666;28;20477;-90
2022/03/09 07:53:23;;;;;;;24.80;11.77;;;3.30;45.80;;;;;;5029929;28;20458;-91
2022/03/09 07:55:50;;;;;;;17.60;10.30;;;3.30;46.40;;;;;;5045569;28;20998;-90
2022/03/09 07:58:17;;;;;;;20.37;10.23;;;3.40;46.00;;;;;;5062544;28;20486;-89
2022/03/09 08:00:44;;;;;;;16.30;11.87;;;3.40;45.90;;;;;;5043927;28;20462;-90
2022/03/09 08:03:11;;;;;;;24.70;10.20;;;3.50;46.00;;;;;;5065109;28;20456;-89
2022/03/09 08:05:38;;;;;;;18.80;11.13;;;3.50;45.90;;;;;;5050490;28;21003;-89
2022/03/09 08:08:06;;;;;;;19.73;11.27;;;3.50;45.90;;;;;;5034768;28;20456;-90
2022/03/09 08:10:33;;;;;;;22.60;10.43;;;3.60;46.00;;;;;;5069551;28;20444;-90
2022/03/09 08:13:00;;;;;;;17.43;10.50;;;3.70;46.20;;;;;;5085607;28;20459;-90
2022/03/09 08:15:27;;;;;;;17.50;9.33;;;3.70;46.10;;;;;;5047698;28;20471;-88
2022/03/09 08:17:54;;;;;;;31.57;13.00;;;3.80;46.30;;;;;;5063725;28;20982;-90
2022/03/09 08:20:21;;;;;;;19.63;10.50;;;3.80;46.10;;;;;;5085349;28;20451;-89
2022/03/09 08:22:48;;;;;;;15.80;8.23;;;3.90;45.90;;;;;;5067954;28;20513;-89
2022/03/09 08:25:16;;;;;;;14.10;8.43;;;3.90;46.00;;;;;;5048752;28;20978;-88
2022/03/09 08:27:43;;;;;;;15.37;8.10;;;3.90;45.80;;;;;;5045015;28;20483;-89
2022/03/09 08:30:11;;;;;;;13.13;7.83;;;3.90;45.70;;;;;;5044168;28;20463;-89
2022/03/09 08:32:38;;;;;;;18.63;9.63;;;3.90;45.40;;;;;;5073625;28;20479;-88
2022/03/09 08:35:07;;;;;;;16.13;8.40;;;4.00;45.80;;;;;;5049662;28;20452;-88
2022/03/09 08:37:34;;;;;;;14.93;8.30;;;4.00;45.90;;;;;;5087616;28;20957;-88
2022/03/09 08:40:01;;;;;;;14.23;8.77;;;4.00;45.90;;;;;;5048468;28;20460;-88
2022/03/09 08:42:29;;;;;;;11.83;8.30;;;3.90;45.70;;;;;;5049863;28;20470;-88
2022/03/09 08:44:56;;;;;;;17.00;9.17;;;3.90;46.00;;;;;;5061486;28;20451;-88
2022/03/09 08:47:23;;;;;;;16.63;9.20;;;3.90;46.40;;;;;;5061681;28;21063;-88
2022/03/09 08:49:50;;;;;;;18.37;10.40;;;4.00;46.50;;;;;;5064533;28;20513;-87
2022/03/09 08:52:17;;;;;;;15.60;9.57;;;4.10;46.50;;;;;;5065054;28;20487;-87
2022/03/09 08:54:44;;;;;;;18.90;9.47;;;4.20;46.70;;;;;;5082565;28;20817;-86
2022/03/09 08:57:11;;;;;;;15.47;8.00;;;4.30;46.50;;;;;;5045991;28;20471;-84
2022/03/09 08:59:39;;;;;;;12.80;7.13;;;4.30;46.80;;;;;;5066684;28;20482;-87
2022/03/09 09:02:07;;;;;;;14.10;9.57;;;4.40;46.50;;;;;;5063197;28;20484;-88
2022/03/09 09:04:34;;;;;;;13.10;8.63;;;4.50;46.40;;;;;;5083615;28;20462;-86
2022/03/09 09:07:01;;;;;;;17.57;8.13;;;4.60;46.70;;;;;;5068674;28;20511;-87
2022/03/09 09:09:28;;;;;;;13.37;9.30;;;4.70;46.90;;;;;;5064643;28;20545;-87
2022/03/09 09:11:55;;;;;;;18.80;9.83;;;4.80;46.70;;;;;;5064293;28;20486;-86
2022/03/09 09:14:22;;;;;;;21.13;9.20;;;5.00;46.70;;;;;;5081551;28;20458;-87
2022/03/09 09:16:50;;;;;;;18.07;9.97;;;5.20;46.60;;;;;;5062849;28;20483;-86
2022/03/09 09:19:17;;;;;;;25.33;10.60;;;5.30;46.30;;;;;;5081866;28;20455;-87
2022/03/09 09:21:45;;;;;;;13.57;8.90;;;5.30;46.30;;;;;;5063261;28;20482;-86
2022/03/09 09:24:12;;;;;;;17.13;10.13;;;5.40;46.40;;;;;;5066380;28;20983;-85
2022/03/09 09:26:39;;;;;;;13.40;8.10;;;5.60;46.60;;;;;;5064604;28;20460;-87
2022/03/09 09:29:07;;;;;;;18.80;9.43;;;5.70;46.70;;;;;;5052805;28;20454;-86
2022/03/09 09:31:34;;;;;;;25.47;9.83;;;5.90;47.00;;;;;;5064965;28;20486;-85
2022/03/09 09:34:03;;;;;;;18.97;9.43;;;6.00;46.40;;;;;;5081287;28;20452;-88
2022/03/09 09:36:30;;;;;;;20.80;9.50;;;6.20;46.20;;;;;;5082464;28;20534;-86
2022/03/09 09:38:57;;;;;;;13.87;9.23;;;6.40;45.80;;;;;;5047659;28;20474;-84
2022/03/09 09:41:26;;;;;;;16.07;9.13;;;6.60;45.20;;;;;;5079051;28;20467;-85
2022/03/09 09:43:53;;;;;;;12.30;7.30;;;6.80;45.00;;;;;;5066187;28;21153;-84
2022/03/09 09:46:20;;;;;;;18.80;9.93;;;7.10;44.80;;;;;;5066287;28;20451;-85
2022/03/09 09:48:48;;;;;;;15.90;9.67;;;7.30;44.30;;;;;;5081601;28;20481;-85
2022/03/09 09:51:16;;;;;;;14.50;9.10;;;7.50;43.80;;;;;;5045226;28;20466;-83
2022/03/09 09:53:44;;;;;;;15.70;9.97;;;7.70;44.40;;;;;;5079703;28;20456;-86
2022/03/09 09:56:13;;;;;;;14.27;8.13;;;7.90;43.30;;;;;;5058955;28;20456;-85
2022/03/09 09:58:42;;;;;;;15.20;8.93;;;8.10;42.70;;;;;;5077109;28;21002;-86
2022/03/09 10:01:09;;;;;;;16.03;8.83;;;8.30;42.60;;;;;;5077983;28;20572;-87
2022/03/09 10:03:37;;;;;;;25.93;9.10;;;8.60;42.30;;;;;;5048928;28;20462;-88
2022/03/09 10:06:04;;;;;;;11.90;8.53;;;8.90;42.00;;;;;;5058595;28;20475;-86
2022/03/09 10:08:32;;;;;;;13.03;8.17;;;9.10;41.30;;;;;;5035576;28;20800;-86
2022/03/09 10:11:01;;;;;;;19.07;9.40;;;9.30;41.00;;;;;;5044727;28;20467;-86
2022/03/09 10:13:30;;;;;;;14.10;9.17;;;9.50;41.00;;;;;;5042249;28;20460;-86
2022/03/09 10:16:24;;;;;;;17.13;8.50;;;9.70;40.10;;;;;;5043033;28;20467;-86
2022/03/09 10:18:54;;;;;;;13.60;8.97;;;10.00;38.90;;;;;;5008152;28;21026;-86
2022/03/09 10:21:23;;;;;;;17.30;9.40;;;9.90;38.40;;;;;;5078334;28;20725;-86
2022/03/09 10:23:57;;;;;;;14.80;9.17;;;10.10;37.30;;;;;;5079523;28;20455;-87
2022/03/09 10:26:25;;;;;;;16.00;9.37;;;10.20;36.90;;;;;;5079099;28;20459;-87
2022/03/09 10:29:01;;;;;;;13.97;9.00;;;10.40;36.70;;;;;;5039907;28;20766;-86
2022/03/09 10:31:33;;;;;;;17.80;9.77;;;10.50;36.40;;;;;;5080244;28;20467;-88
2022/03/09 10:34:07;;;;;;;12.53;8.40;;;10.70;36.20;;;;;;5065876;28;21049;-86
2022/03/09 10:36:35;;;;;;;16.83;8.33;;;10.90;36.50;;;;;;5056967;28;21201;-86
2022/03/09 10:39:17;;;;;;;17.33;10.13;;;11.10;35.70;;;;;;5086377;28;20488;-87
2022/03/09 10:41:44;;;;;;;15.90;8.97;;;11.30;35.30;;;;;;5038039;28;20481;-86
2022/03/09 10:44:12;;;;;;;19.03;8.67;;;11.50;34.60;;;;;;5050550;28;20484;-87
2022/03/09 10:46:43;;;;;;;21.03;8.23;;;11.70;34.00;;;;;;5049762;28;20470;-87
2022/03/09 10:49:12;;;;;;;13.63;8.50;;;11.90;33.90;;;;;;5064235;28;20443;-86
2022/03/09 10:51:42;;;;;;;10.73;7.93;;;12.10;33.30;;;;;;5064134;28;20474;-86
2022/03/09 10:54:11;;;;;;;12.30;8.30;;;12.30;33.30;;;;;;5082037;28;20465;-87
2022/03/09 10:56:39;;;;;;;14.17;8.57;;;12.40;32.00;;;;;;5065414;28;20443;-87
2022/03/09 10:59:12;;;;;;;12.77;7.90;;;12.50;32.00;;;;;;5083842;28;20668;-87
2022/03/09 11:01:39;;;;;;;18.60;7.83;;;12.70;31.90;;;;;;5063943;28;20471;-85
2022/03/09 11:04:15;;;;;;;12.40;8.60;;;12.80;31.20;;;;;;5084078;28;21044;-86
2022/03/09 11:06:46;;;;;;;11.10;7.67;;;13.00;31.20;;;;;;5029368;28;20455;-84
2022/03/09 11:09:18;;;;;;;12.30;7.53;;;13.20;31.10;;;;;;5082570;28;20452;-87
2022/03/09 11:11:48;;;;;;;14.33;8.30;;;13.40;29.90;;;;;;5054006;28;20996;-87
2022/03/09 11:14:16;;;;;;;13.97;7.97;;;13.60;28.90;;;;;;5063928;28;20462;-89
2022/03/09 11:16:43;;;;;;;11.80;8.20;;;13.70;29.30;;;;;;5080006;28;20494;-88
2022/03/09 11:19:12;;;;;;;12.93;7.03;;;13.90;29.00;;;;;;5065815;28;20482;-87
2022/03/09 11:21:40;;;;;;;11.73;7.37;;;13.90;29.30;;;;;;5084686;28;20482;-86
2022/03/09 11:24:09;;;;;;;10.80;6.87;;;14.10;27.90;;;;;;5064808;28;20550;-87
2022/03/09 11:26:40;;;;;;;13.37;8.97;;;14.00;27.80;;;;;;5040706;28;20966;-87
2022/03/09 11:29:12;;;;;;;13.73;7.27;;;14.00;28.50;;;;;;5048359;28;20448;-87
2022/03/09 11:31:45;;;;;;;12.20;7.83;;;14.10;28.20;;;;;;5062867;28;20495;-86
2022/03/09 11:34:31;;;;;;;11.37;7.80;;;14.10;27.40;;;;;;5065963;28;20475;-87
2022/03/09 11:36:59;;;;;;;11.40;7.23;;;14.50;27.20;;;;;;5084576;28;20573;-86
2022/03/09 11:39:26;;;;;;;10.77;7.80;;;14.70;26.50;;;;;;5064703;28;20479;-88
2022/03/09 11:42:26;;;;;;;12.87;8.17;;;15.00;26.60;;;;;;5063518;28;20586;-86
2022/03/09 11:45:16;;;;;;;16.53;10.40;;;15.10;26.60;;;;;;5066864;28;20487;-86
2022/03/09 11:47:56;;;;;;;12.13;8.73;;;15.40;26.10;;;;;;5056099;28;20436;-86
2022/03/09 11:50:23;;;;;;;11.90;8.57;;;15.70;26.50;;;;;;5064431;28;20491;-87
2022/03/09 11:52:59;;;;;;;10.70;9.00;;;15.90;25.40;;;;;;5083109;28;20644;-87
2022/03/09 11:55:27;;;;;;;12.57;7.90;;;16.00;28.30;;;;;;5052660;28;20443;-89
2022/03/09 11:58:18;;;;;;;11.40;8.20;;;15.90;26.40;;;;;;5063794;28;20478;-88
2022/03/09 12:03:39;;;;;;;11.47;6.93;;;16.20;27.90;;;;;;5109344;27;20933;-88
2022/03/09 12:06:27;;;;;;;12.50;7.80;;;16.70;25.10;;;;;;5092189;28;20434;-87
2022/03/09 12:08:54;;;;;;;11.93;7.00;;;17.10;26.20;;;;;;5108671;28;20845;-88
2022/03/09 12:11:21;;;;;;;9.80;7.10;;;17.30;25.30;;;;;;5106236;28;20477;-88
2022/03/09 12:13:48;;;;;;;13.93;7.10;;;17.60;24.60;;;;;;5106136;27;20814;-87
2022/03/09 12:16:24;;;;;;;8.80;6.43;;;17.30;21.20;;;;;;5102978;28;20476;-87
2022/03/09 12:19:14;;;;;;;16.70;7.30;;;17.30;22.00;;;;;;5103021;28;20550;-86
2022/03/09 12:22:04;;;;;;;13.13;8.83;;;17.50;22.10;;;;;;5070161;28;20467;-86
2022/03/09 12:24:36;;;;;;;19.20;6.67;;;16.10;20.70;;;;;;5101152;28;20442;-86
2022/03/09 12:27:25;;;;;;;7.37;6.00;;;16.20;21.80;;;;;;5104292;28;20553;-84
2022/03/09 12:29:52;;;;;;;10.17;6.10;;;16.00;21.60;;;;;;5091178;28;20447;-86
2022/03/09 12:32:22;;;;;;;8.53;5.30;;;16.20;21.20;;;;;;5102041;28;20466;-85
2022/03/09 12:34:52;;;;;;;11.53;6.87;;;16.40;21.20;;;;;;5086755;28;20453;-86
2022/03/09 12:37:24;;;;;;;11.20;5.50;;;16.40;21.30;;;;;;5106277;28;20524;-87
2022/03/09 12:39:54;;;;;;;8.13;5.50;;;16.80;21.60;;;;;;5101806;27;20451;-86
2022/03/09 12:42:22;;;;;;;9.63;5.80;;;16.70;20.00;;;;;;5104656;28;20500;-87
2022/03/09 12:44:50;;;;;;;9.53;5.57;;;16.70;21.30;;;;;;5076099;28;20587;-86
2022/03/09 12:47:18;;;;;;;6.77;4.10;;;17.10;20.50;;;;;;5100600;28;20454;-85
2022/03/09 12:49:49;;;;;;;9.27;5.80;;;17.20;19.40;;;;;;5099987;28;20447;-87
2022/03/09 12:52:18;;;;;;;6.20;4.90;;;17.20;20.00;;;;;;5111089;28;20839;-87
2022/03/09 12:54:48;;;;;;;12.57;5.33;;;17.30;19.60;;;;;;5103137;28;20459;-86
2022/03/09 12:57:22;;;;;;;7.40;5.07;;;17.60;19.60;;;;;;5103621;27;20459;-86